Aérodrome :
LOGIN :

S'inscrire | Disclaimer

   EN    FR    IT 

 










Légende :    VFR   VFR Marginal   IFR   IFR Intensif   IFR Très Intensif
Visi : 
Plafond : 
>= 8 km
>= 3000ft
5 à 8 km
1000 à 3000 ft
1500m à 5 km
500 à 1000 ft
800 à 1500m
200 à 500 ft
< 800m
< 200 ft
Symboles :   Orages  Brouillard  Fortes neiges  Fortes précipitations  Vent > 20 kt
SIGMETs :   Divers  Orages  Givrage  Turbulence  Onde Orograph.  Cendres Volcan.






- Altitude de l'aérodrome : 102 ft
- Code IATA : CNG


LFBG - Cognac

DERNIER METAR :
  • 161100Z AUTO 03016KT 360V060 CAVOK 12/M04 Q1024 BECMG 03015G25KT

METARs EXPIRÉS :
  • 161030Z AUTO 04013KT 360V070 CAVOK 11/M02 Q1024 BECMG 03015G25KT
  • 161000Z AUTO 02012KT 350V050 CAVOK 11/M02 Q1025 BECMG 03015G25KT
  • 160930Z AUTO 02010KT CAVOK 10/M02 Q1025 BECMG 03015G25KT
  • 160900Z AUTO 04010KT 360V060 CAVOK 09/M01 Q1025 BECMG 03015G25KT
  • 160830Z AUTO 03009KT CAVOK 08/M01 Q1025 BECMG 03015G25KT

TAF TAF LFBG
Valide du 16 à 09h jusqu'au 17 à 09h UTC


160800Z 1609/1709 03015KT CAVOK
BECMG 1609/1611 03015G25KT
BECMG 1618/1620 02008KT



MET'MAP, la Météo Aéronautique d'un coup d'oeil ! - Copyright ORBIFLY Décembre 2007 - Disclaimer

ORBIFLY MET'MAP TEAM :

Programmation & Développement : Alexandra Zaïnal
Sur une idée originale de : Baudouin d'Aumeries
Assistance à la programmation : Marc-Olivier Méhu
Soutien technique & logistique : Manuel Goepfert

Contact : metmap@orbifly.com




SOURCES & CREDITS :

   NOAA